Skip Navigation LinksHome page > Weather > Current weather Skip Navigation Links

Current Weather

Alert, Nunavut

For information only: do not use for flight planning or navigation.
Latest weather
Observation time Monday, July 25, 2016 3:00 PM EDT
Local time Monday, July 25, 2016 4:02 PM EDT
Flight conditions Visual Meteorological Conditions
Winds
Wind direction South (190°)
Wind speed 20 mph
Visibility 15 mi.
Sky condition
Ceiling unlimited
Cloud layer few clouds 12,000 ft.
Cloud layer few clouds 20,000 ft.
Temperature 64°F
Dewpoint 43°F
Altimeter 29.87 in.Hg
Derived measurements
Relative humidity 45%
Density altitude 548 ft.
Sea-level pressure 29.88 in.Hg
Remarks
Last observation of the day.
METAR CYLT 251900Z 19017KT 15SM FEW120 FEW200 18/06 A2987 RMK AC1CI1 LAST OBS/NEXT 260900 UTC SLP118

Settings

Location code

InnerDrive.Weather 4.0.5722.1 Release CLR 4.0.30319.34209
Copyright ©2015 Inner Drive Technology. All rights reserved. Portions Copyright ©1986-2015 David Braverman.

Find weather

Site navigation


Skip Navigation Links

Place info

Page info

PayPal - The safer, easier way to pay online!

Return home.

Copyright ©2016 Inner Drive Technology. Purveyors of fine, hand-crafted computer software. Page printed 2016-07-25T20:02:37 UTC.